DAL1440 KMCO-KAUS
Flight info
| Callsign | DAL1440 |
|---|---|
| Flight time | N/A |
| Altitude | 30000 |
| Route | OSPRY1 REMIS Y280 ROZZI/N0465F320 Y280 LEV LCH WEEED WLEEE7 |
| Aircraft | E170/M-SDE3GILORVW/S |
Departure
| Time | 2026-05-05 13:58 |
|---|---|
| Airport | Orlando International Airport (KMCO) |
Arrival
| Time | N/A |
|---|---|
| Airport | Austin Bergstrom International Airport (KAUS) |
| Time | Latitude | Longitude | Altitude | Speed | Heading |
|---|---|---|---|---|---|
| 2026-05-05 13:24 | 28.43482 | -81.31290 | 92 ft | 0 kts | 324° |
| 2026-05-05 13:39 | 28.43472 | -81.31281 | 93 ft | 3 kts | 324° |
| 2026-05-05 13:39 | 28.43455 | -81.31268 | 92 ft | 3 kts | 330° |
| 2026-05-05 13:40 | 28.43437 | -81.31265 | 94 ft | 2 kts | 9° |
| 2026-05-05 13:40 | 28.43421 | -81.31268 | 92 ft | 1 kts | 9° |
| 2026-05-05 13:40 | 28.43419 | -81.31268 | 92 ft | 0 kts | 9° |
| 2026-05-05 13:42 | 28.43423 | -81.31266 | 92 ft | 1 kts | 36° |
| 2026-05-05 13:43 | 28.43439 | -81.31245 | 92 ft | 5 kts | 56° |
| 2026-05-05 13:43 | 28.43461 | -81.31206 | 94 ft | 7 kts | 56° |
| 2026-05-05 13:43 | 28.43495 | -81.31160 | 92 ft | 8 kts | 34° |
| 2026-05-05 13:43 | 28.43549 | -81.31140 | 94 ft | 9 kts | 9° |
| 2026-05-05 13:44 | 28.43614 | -81.31142 | 94 ft | 9 kts | 336° |
| 2026-05-05 13:44 | 28.43671 | -81.31182 | 92 ft | 11 kts | 327° |
| 2026-05-05 13:44 | 28.43732 | -81.31227 | 94 ft | 11 kts | 327° |
| 2026-05-05 13:44 | 28.43774 | -81.31286 | 96 ft | 9 kts | 295° |
| 2026-05-05 13:45 | 28.43795 | -81.31351 | 98 ft | 8 kts | 290° |
| 2026-05-05 13:45 | 28.43812 | -81.31408 | 100 ft | 8 kts | 289° |
| 2026-05-05 13:45 | 28.43830 | -81.31468 | 101 ft | 8 kts | 288° |
| 2026-05-05 13:45 | 28.43839 | -81.31530 | 104 ft | 9 kts | 274° |
| 2026-05-05 13:46 | 28.43847 | -81.31610 | 104 ft | 11 kts | 276° |
| 2026-05-05 13:46 | 28.43847 | -81.31705 | 103 ft | 14 kts | 270° |
| 2026-05-05 13:46 | 28.43844 | -81.31812 | 98 ft | 12 kts | 246° |
| 2026-05-05 13:46 | 28.43767 | -81.31846 | 96 ft | 13 kts | 181° |
| 2026-05-05 13:47 | 28.43668 | -81.31846 | 96 ft | 15 kts | 179° |
| 2026-05-05 13:47 | 28.43555 | -81.31844 | 96 ft | 17 kts | 179° |
| 2026-05-05 13:47 | 28.43431 | -81.31842 | 96 ft | 19 kts | 178° |
| 2026-05-05 13:47 | 28.43296 | -81.31841 | 97 ft | 20 kts | 180° |
| 2026-05-05 13:48 | 28.43150 | -81.31841 | 98 ft | 21 kts | 179° |
| 2026-05-05 13:48 | 28.42999 | -81.31837 | 96 ft | 23 kts | 180° |
| 2026-05-05 13:48 | 28.42838 | -81.31837 | 96 ft | 23 kts | 178° |
| 2026-05-05 13:48 | 28.42677 | -81.31835 | 99 ft | 23 kts | 180° |
| 2026-05-05 13:49 | 28.42514 | -81.31834 | 99 ft | 24 kts | 180° |
| 2026-05-05 13:49 | 28.42363 | -81.31832 | 97 ft | 21 kts | 179° |
| 2026-05-05 13:49 | 28.42214 | -81.31848 | 96 ft | 22 kts | 193° |
| 2026-05-05 13:49 | 28.42058 | -81.31876 | 96 ft | 23 kts | 184° |
| 2026-05-05 13:50 | 28.41896 | -81.31876 | 96 ft | 20 kts | 180° |
| 2026-05-05 13:50 | 28.41767 | -81.31895 | 96 ft | 15 kts | 235° |
| 2026-05-05 13:50 | 28.41716 | -81.31978 | 97 ft | 13 kts | 189° |
| 2026-05-05 13:50 | 28.41619 | -81.31980 | 98 ft | 15 kts | 180° |
| 2026-05-05 13:51 | 28.41543 | -81.32035 | 95 ft | 15 kts | 268° |
| 2026-05-05 13:51 | 28.41543 | -81.32088 | 95 ft | 0 kts | 269° |
| 2026-05-05 13:55 | 28.41543 | -81.32095 | 95 ft | 4 kts | 269° |
| 2026-05-05 13:55 | 28.41543 | -81.32145 | 95 ft | 9 kts | 270° |
| 2026-05-05 13:56 | 28.41542 | -81.32233 | 95 ft | 13 kts | 269° |
| 2026-05-05 13:56 | 28.41541 | -81.32344 | 95 ft | 15 kts | 270° |
| 2026-05-05 13:56 | 28.41539 | -81.32470 | 96 ft | 17 kts | 269° |
| 2026-05-05 13:56 | 28.41539 | -81.32593 | 97 ft | 12 kts | 270° |
| 2026-05-05 13:57 | 28.41579 | -81.32662 | 98 ft | 12 kts | 347° |
| 2026-05-05 13:57 | 28.41696 | -81.32665 | 98 ft | 35 kts | 359° |
| 2026-05-05 13:57 | 28.42186 | -81.32671 | 97 ft | 104 kts | 359° |
| 2026-05-05 13:57 | 28.43116 | -81.32676 | 98 ft | 160 kts | 1° |
| 2026-05-05 13:58 | 28.44341 | -81.32742 | 366 ft | 186 kts | 359° |
| 2026-05-05 13:58 | 28.45650 | -81.32609 | 1063 ft | 192 kts | 17° |
| 2026-05-05 13:58 | 28.46947 | -81.32334 | 1971 ft | 187 kts | 12° |
| 2026-05-05 13:58 | 28.48252 | -81.32189 | 2758 ft | 192 kts | 6° |
| 2026-05-05 13:59 | 28.51192 | -81.32659 | 3551 ft | 241 kts | 354° |
| 2026-05-05 13:59 | 28.52834 | -81.32819 | 3772 ft | 226 kts | 354° |
| 2026-05-05 14:00 | 28.55630 | -81.33424 | 4010 ft | 187 kts | 345° |
| 2026-05-05 14:00 | 28.56447 | -81.33724 | 4033 ft | 188 kts | 339° |
| 2026-05-05 14:00 | 28.58039 | -81.34486 | 3928 ft | 200 kts | 337° |
| 2026-05-05 14:00 | 28.59254 | -81.35437 | 4342 ft | 235 kts | 307° |
| 2026-05-05 14:01 | 28.59887 | -81.37294 | 4874 ft | 261 kts | 275° |
| 2026-05-05 14:01 | 28.59857 | -81.39366 | 5277 ft | 262 kts | 266° |
| 2026-05-05 14:01 | 28.59721 | -81.41421 | 5606 ft | 264 kts | 266° |
| 2026-05-05 14:01 | 28.59673 | -81.43503 | 5912 ft | 268 kts | 269° |
| 2026-05-05 14:02 | 28.59653 | -81.45649 | 6995 ft | 265 kts | 269° |
| 2026-05-05 14:02 | 28.59362 | -81.47713 | 8010 ft | 269 kts | 248° |
| 2026-05-05 14:02 | 28.58508 | -81.49638 | 8957 ft | 275 kts | 240° |
| 2026-05-05 14:02 | 28.57481 | -81.51501 | 9830 ft | 280 kts | 237° |
| 2026-05-05 14:03 | 28.56380 | -81.53341 | 10626 ft | 284 kts | 237° |
| 2026-05-05 14:03 | 28.55216 | -81.55220 | 11156 ft | 299 kts | 236° |
| 2026-05-05 14:03 | 28.53899 | -81.57153 | 11528 ft | 317 kts | 232° |
| 2026-05-05 14:03 | 28.52438 | -81.59111 | 11982 ft | 332 kts | 231° |
| 2026-05-05 14:04 | 28.50912 | -81.61128 | 12635 ft | 338 kts | 232° |
| 2026-05-05 14:04 | 28.49393 | -81.63132 | 13375 ft | 341 kts | 232° |
| 2026-05-05 14:04 | 28.47839 | -81.65183 | 14081 ft | 344 kts | 232° |
| 2026-05-05 14:04 | 28.46273 | -81.67247 | 14708 ft | 346 kts | 232° |
| 2026-05-05 14:05 | 28.44692 | -81.69331 | 15309 ft | 349 kts | 233° |
| 2026-05-05 14:05 | 28.43091 | -81.71438 | 15902 ft | 352 kts | 233° |
| 2026-05-05 14:05 | 28.41487 | -81.73550 | 16474 ft | 355 kts | 233° |
| 2026-05-05 14:05 | 28.39862 | -81.75688 | 17041 ft | 358 kts | 233° |
| 2026-05-05 14:06 | 28.38231 | -81.77835 | 17590 ft | 361 kts | 233° |
| 2026-05-05 14:06 | 28.36582 | -81.80000 | 18118 ft | 364 kts | 234° |
| 2026-05-05 14:06 | 28.34922 | -81.82182 | 18591 ft | 366 kts | 234° |
| 2026-05-05 14:06 | 28.33817 | -81.83631 | 18878 ft | 368 kts | 234° |
| 2026-05-05 14:07 | 28.32142 | -81.85838 | 19301 ft | 369 kts | 236° |
| 2026-05-05 14:07 | 28.30525 | -81.89170 | 19844 ft | 362 kts | 252° |
| 2026-05-05 14:07 | 28.29651 | -81.91849 | 20273 ft | 362 kts | 255° |
| 2026-05-05 14:07 | 28.28842 | -81.94572 | 20702 ft | 364 kts | 256° |
| 2026-05-05 14:08 | 28.28324 | -81.96383 | 20984 ft | 365 kts | 257° |
| 2026-05-05 14:08 | 28.27639 | -81.99150 | 21385 ft | 364 kts | 262° |
| 2026-05-05 14:08 | 28.27078 | -82.01958 | 21801 ft | 365 kts | 262° |
| 2026-05-05 14:08 | 28.26532 | -82.04781 | 22113 ft | 370 kts | 262° |
| 2026-05-05 14:09 | 28.25981 | -82.07686 | 22109 ft | 382 kts | 262° |
| 2026-05-05 14:09 | 28.25412 | -82.10664 | 22122 ft | 391 kts | 262° |
| 2026-05-05 14:09 | 28.24828 | -82.13718 | 22138 ft | 400 kts | 262° |
| 2026-05-05 14:09 | 28.24232 | -82.16827 | 22187 ft | 406 kts | 262° |
| 2026-05-05 14:10 | 28.23629 | -82.19967 | 22464 ft | 406 kts | 262° |
| 2026-05-05 14:10 | 28.23030 | -82.23086 | 22797 ft | 405 kts | 262° |
| 2026-05-05 14:10 | 28.22438 | -82.26170 | 23148 ft | 404 kts | 262° |
| 2026-05-05 14:10 | 28.21833 | -82.29315 | 23530 ft | 403 kts | 262° |
| 2026-05-05 14:11 | 28.21243 | -82.32377 | 23857 ft | 402 kts | 262° |
| 2026-05-05 14:11 | 28.20640 | -82.35503 | 24159 ft | 401 kts | 262° |
| 2026-05-05 14:11 | 28.20050 | -82.38552 | 24455 ft | 400 kts | 263° |
| 2026-05-05 14:11 | 28.19456 | -82.41624 | 24778 ft | 400 kts | 263° |
| 2026-05-05 14:12 | 28.18859 | -82.44703 | 25107 ft | 399 kts | 263° |
| 2026-05-05 14:12 | 28.18291 | -82.47631 | 25334 ft | 402 kts | 263° |
| 2026-05-05 14:12 | 28.17683 | -82.50772 | 25330 ft | 411 kts | 263° |
| 2026-05-05 14:12 | 28.17063 | -82.53954 | 25335 ft | 418 kts | 262° |
| 2026-05-05 14:13 | 28.16431 | -82.57194 | 25375 ft | 423 kts | 262° |
| 2026-05-05 14:13 | 28.15792 | -82.60457 | 25586 ft | 424 kts | 262° |
| 2026-05-05 14:13 | 28.15247 | -82.63246 | 25807 ft | 423 kts | 263° |
| 2026-05-05 14:13 | 28.14778 | -82.65649 | 25889 ft | 423 kts | 263° |
| 2026-05-05 14:14 | 28.14141 | -82.68910 | 26147 ft | 423 kts | 263° |
| 2026-05-05 14:14 | 28.13505 | -82.72152 | 26318 ft | 419 kts | 263° |
| 2026-05-05 14:14 | 28.12874 | -82.75374 | 26372 ft | 419 kts | 263° |
| 2026-05-05 14:14 | 28.12251 | -82.78547 | 26439 ft | 416 kts | 263° |
| 2026-05-05 14:15 | 28.11622 | -82.81744 | 26475 ft | 418 kts | 263° |
| 2026-05-05 14:15 | 28.10976 | -82.84969 | 26801 ft | 417 kts | 262° |
| 2026-05-05 14:15 | 28.10346 | -82.88167 | 27113 ft | 415 kts | 264° |
| 2026-05-05 14:15 | 28.09745 | -82.91367 | 27420 ft | 415 kts | 264° |
| 2026-05-05 14:16 | 28.09144 | -82.94561 | 27732 ft | 414 kts | 264° |
| 2026-05-05 14:16 | 28.08545 | -82.97747 | 28040 ft | 414 kts | 264° |
| 2026-05-05 14:16 | 28.07948 | -83.00923 | 28340 ft | 413 kts | 264° |
| 2026-05-05 14:16 | 28.07346 | -83.04115 | 28646 ft | 413 kts | 264° |
| 2026-05-05 14:17 | 28.06753 | -83.07254 | 28944 ft | 413 kts | 264° |
| 2026-05-05 14:17 | 28.06152 | -83.10431 | 29241 ft | 412 kts | 264° |
| 2026-05-05 14:17 | 28.05551 | -83.13601 | 29536 ft | 412 kts | 264° |
| 2026-05-05 14:17 | 28.04949 | -83.16775 | 29828 ft | 411 kts | 264° |
| 2026-05-05 14:18 | 28.04349 | -83.19941 | 30123 ft | 411 kts | 264° |
| 2026-05-05 14:18 | 28.03747 | -83.23103 | 30391 ft | 410 kts | 264° |
| 2026-05-05 14:18 | 28.03145 | -83.26260 | 30685 ft | 409 kts | 265° |
| 2026-05-05 14:18 | 28.02546 | -83.29395 | 30976 ft | 407 kts | 265° |
| 2026-05-05 14:19 | 28.01949 | -83.32524 | 31261 ft | 405 kts | 265° |
| 2026-05-05 14:19 | 28.01353 | -83.35639 | 31555 ft | 404 kts | 265° |
| 2026-05-05 14:19 | 28.00778 | -83.38749 | 31689 ft | 402 kts | 266° |
| 2026-05-05 14:19 | 28.00288 | -83.41858 | 31952 ft | 400 kts | 268° |
| 2026-05-05 14:20 | 27.99750 | -83.48028 | 32077 ft | 397 kts | 272° |
| 2026-05-05 14:20 | 27.99362 | -83.54650 | 32087 ft | 405 kts | 273° |
| 2026-05-05 14:21 | 27.99009 | -83.60741 | 32089 ft | 414 kts | 272° |
| 2026-05-05 14:21 | 27.98625 | -83.67320 | 32087 ft | 423 kts | 272° |
| 2026-05-05 14:22 | 27.98234 | -83.73965 | 32080 ft | 423 kts | 272° |
| 2026-05-05 14:22 | 27.97842 | -83.80568 | 32078 ft | 422 kts | 272° |
| 2026-05-05 14:23 | 27.97445 | -83.87194 | 32074 ft | 422 kts | 272° |
| 2026-05-05 14:23 | 27.97044 | -83.93829 | 32073 ft | 423 kts | 272° |
| 2026-05-05 14:24 | 27.96640 | -84.00464 | 32076 ft | 423 kts | 272° |
| 2026-05-05 14:24 | 27.96232 | -84.07107 | 32076 ft | 423 kts | 272° |
| 2026-05-05 14:25 | 27.95821 | -84.13757 | 32076 ft | 423 kts | 272° |
| 2026-05-05 14:25 | 27.95406 | -84.20411 | 32073 ft | 423 kts | 272° |
| 2026-05-05 14:26 | 27.94990 | -84.27049 | 32073 ft | 423 kts | 272° |
| 2026-05-05 14:26 | 27.94571 | -84.33655 | 32072 ft | 423 kts | 271° |
| 2026-05-05 14:27 | 27.94147 | -84.40300 | 32068 ft | 424 kts | 271° |
| 2026-05-05 14:27 | 27.93719 | -84.46958 | 32068 ft | 424 kts | 271° |
| 2026-05-05 14:28 | 27.93288 | -84.53614 | 32067 ft | 424 kts | 271° |
| 2026-05-05 14:28 | 27.92857 | -84.60219 | 32066 ft | 424 kts | 271° |
| 2026-05-05 14:29 | 27.92420 | -84.66868 | 32068 ft | 424 kts | 271° |
| 2026-05-05 14:29 | 27.91978 | -84.73540 | 32066 ft | 424 kts | 271° |
| 2026-05-05 14:30 | 27.91534 | -84.80182 | 32049 ft | 424 kts | 271° |
| 2026-05-05 14:30 | 27.91090 | -84.86801 | 32060 ft | 424 kts | 271° |
| 2026-05-05 14:31 | 27.90640 | -84.93451 | 32070 ft | 424 kts | 271° |
| 2026-05-05 14:31 | 27.90186 | -85.00109 | 32069 ft | 425 kts | 271° |
| 2026-05-05 14:32 | 27.89729 | -85.06773 | 32069 ft | 425 kts | 271° |
| 2026-05-05 14:32 | 27.89268 | -85.13432 | 32069 ft | 425 kts | 271° |
| 2026-05-05 14:33 | 27.88804 | -85.20101 | 32069 ft | 425 kts | 271° |
| 2026-05-05 14:33 | 27.89268 | -85.26639 | 32072 ft | 415 kts | 285° |
| 2026-05-05 14:34 | 27.90620 | -85.32929 | 32076 ft | 413 kts | 290° |
| 2026-05-05 14:34 | 27.92437 | -85.39088 | 32071 ft | 413 kts | 291° |
| 2026-05-05 14:35 | 27.94297 | -85.45242 | 32069 ft | 412 kts | 291° |
| 2026-05-05 14:35 | 27.96156 | -85.51395 | 32068 ft | 413 kts | 291° |
| 2026-05-05 14:36 | 27.98007 | -85.57538 | 32070 ft | 412 kts | 291° |
| 2026-05-05 14:36 | 27.99856 | -85.63685 | 32070 ft | 412 kts | 291° |
| 2026-05-05 14:37 | 28.01689 | -85.69789 | 32066 ft | 412 kts | 291° |
| 2026-05-05 14:37 | 28.03532 | -85.75938 | 32069 ft | 412 kts | 291° |
| 2026-05-05 14:38 | 28.05371 | -85.82087 | 32067 ft | 412 kts | 291° |
| 2026-05-05 14:38 | 28.07208 | -85.88239 | 32063 ft | 412 kts | 291° |
| 2026-05-05 14:39 | 28.09042 | -85.94393 | 32057 ft | 412 kts | 291° |
| 2026-05-05 14:39 | 28.10875 | -86.00554 | 32059 ft | 412 kts | 291° |
| 2026-05-05 14:40 | 28.12704 | -86.06713 | 32059 ft | 412 kts | 291° |
| 2026-05-05 14:40 | 28.14530 | -86.12874 | 32058 ft | 413 kts | 291° |
| 2026-05-05 14:41 | 28.16344 | -86.19008 | 32056 ft | 412 kts | 291° |
| 2026-05-05 14:41 | 28.18169 | -86.25187 | 32059 ft | 413 kts | 291° |
| 2026-05-05 14:42 | 28.19987 | -86.31355 | 32054 ft | 413 kts | 291° |
| 2026-05-05 14:42 | 28.21807 | -86.37543 | 32057 ft | 413 kts | 291° |
| 2026-05-05 14:43 | 28.23612 | -86.43689 | 32058 ft | 413 kts | 291° |
| 2026-05-05 14:43 | 28.25427 | -86.49880 | 32058 ft | 413 kts | 291° |
| 2026-05-05 14:44 | 28.27238 | -86.56070 | 32059 ft | 413 kts | 290° |
| 2026-05-05 14:44 | 28.29045 | -86.62260 | 32060 ft | 413 kts | 290° |
| 2026-05-05 14:45 | 28.30831 | -86.68423 | 32057 ft | 413 kts | 291° |
| 2026-05-05 14:45 | 28.32651 | -86.74610 | 32060 ft | 413 kts | 291° |
| 2026-05-05 14:46 | 28.34465 | -86.80800 | 32063 ft | 413 kts | 290° |
| 2026-05-05 14:46 | 28.36264 | -86.86950 | 32063 ft | 412 kts | 290° |
| 2026-05-05 14:47 | 28.38069 | -86.93137 | 32060 ft | 412 kts | 290° |
| 2026-05-05 14:47 | 28.39873 | -86.99329 | 32061 ft | 412 kts | 290° |
| 2026-05-05 14:48 | 28.41670 | -87.05509 | 32061 ft | 412 kts | 290° |
| 2026-05-05 14:48 | 28.43465 | -87.11693 | 32058 ft | 412 kts | 290° |
| 2026-05-05 14:49 | 28.45241 | -87.17826 | 32060 ft | 411 kts | 290° |
| 2026-05-05 14:49 | 28.47040 | -87.24049 | 32058 ft | 411 kts | 290° |
| 2026-05-05 14:50 | 28.48813 | -87.30192 | 32057 ft | 411 kts | 290° |
| 2026-05-05 14:50 | 28.50594 | -87.36375 | 32057 ft | 411 kts | 290° |
| 2026-05-05 14:51 | 28.52368 | -87.42547 | 32057 ft | 411 kts | 290° |
| 2026-05-05 14:51 | 28.54142 | -87.48728 | 32056 ft | 411 kts | 290° |
| 2026-05-05 14:52 | 28.55912 | -87.54911 | 32057 ft | 411 kts | 290° |
| 2026-05-05 14:52 | 28.57677 | -87.61088 | 32056 ft | 411 kts | 290° |
| 2026-05-05 14:53 | 28.59435 | -87.67247 | 32059 ft | 410 kts | 290° |
| 2026-05-05 14:53 | 28.61194 | -87.73427 | 32056 ft | 410 kts | 290° |
| 2026-05-05 14:54 | 28.62655 | -87.78568 | 32060 ft | 410 kts | 290° |
| 2026-05-05 14:54 | 28.64409 | -87.84751 | 32056 ft | 410 kts | 290° |
| 2026-05-05 14:55 | 28.66159 | -87.90929 | 32052 ft | 410 kts | 290° |
| 2026-05-05 14:55 | 28.67905 | -87.97106 | 32053 ft | 410 kts | 290° |
| 2026-05-05 14:56 | 28.69638 | -88.03250 | 32054 ft | 410 kts | 289° |
| 2026-05-05 14:56 | 28.71379 | -88.09434 | 32052 ft | 409 kts | 289° |
| 2026-05-05 14:57 | 28.73110 | -88.15596 | 32052 ft | 409 kts | 289° |
| 2026-05-05 14:57 | 28.74846 | -88.21787 | 32054 ft | 409 kts | 289° |
| 2026-05-05 14:58 | 28.76574 | -88.27965 | 32053 ft | 409 kts | 289° |
| 2026-05-05 14:58 | 28.78297 | -88.34133 | 32051 ft | 409 kts | 289° |
| 2026-05-05 14:59 | 28.80010 | -88.40279 | 32049 ft | 409 kts | 289° |
| 2026-05-05 14:59 | 28.81732 | -88.46468 | 32048 ft | 409 kts | 289° |
| 2026-05-05 15:00 | 28.83159 | -88.51607 | 32049 ft | 409 kts | 289° |
| 2026-05-05 15:00 | 28.85160 | -88.58826 | 32049 ft | 409 kts | 289° |
| 2026-05-05 15:01 | 28.86868 | -88.65003 | 32048 ft | 408 kts | 289° |
| 2026-05-05 15:01 | 28.88499 | -88.71213 | 32050 ft | 409 kts | 286° |
| 2026-05-05 15:02 | 28.89870 | -88.77506 | 32052 ft | 409 kts | 286° |
| 2026-05-05 15:02 | 28.91206 | -88.83782 | 32049 ft | 409 kts | 286° |
| 2026-05-05 15:03 | 28.92556 | -88.90131 | 32047 ft | 409 kts | 286° |
| 2026-05-05 15:03 | 28.93886 | -88.96402 | 32049 ft | 409 kts | 286° |
| 2026-05-05 15:04 | 28.95221 | -89.02703 | 32044 ft | 409 kts | 285° |
| 2026-05-05 15:04 | 28.96555 | -89.09024 | 32044 ft | 409 kts | 285° |
| 2026-05-05 15:05 | 28.98548 | -89.18482 | 32040 ft | 409 kts | 285° |
| 2026-05-05 15:06 | 28.99877 | -89.24812 | 32039 ft | 409 kts | 285° |
| 2026-05-05 15:06 | 29.01202 | -89.31137 | 32036 ft | 409 kts | 285° |
| 2026-05-05 15:07 | 29.02515 | -89.37423 | 32034 ft | 409 kts | 285° |
| 2026-05-05 15:07 | 29.03834 | -89.43755 | 32032 ft | 409 kts | 285° |
| 2026-05-05 15:08 | 29.05150 | -89.50083 | 32030 ft | 409 kts | 285° |
| 2026-05-05 15:08 | 29.06462 | -89.56413 | 32030 ft | 409 kts | 285° |
| 2026-05-05 15:09 | 29.07773 | -89.62750 | 32025 ft | 409 kts | 285° |
| 2026-05-05 15:09 | 29.09075 | -89.69060 | 32028 ft | 409 kts | 285° |
| 2026-05-05 15:10 | 29.10373 | -89.75366 | 32025 ft | 409 kts | 285° |
| 2026-05-05 15:10 | 29.11679 | -89.81730 | 32023 ft | 409 kts | 285° |
| 2026-05-05 15:11 | 29.12966 | -89.88016 | 32022 ft | 408 kts | 285° |
| 2026-05-05 15:11 | 29.14259 | -89.94347 | 32020 ft | 408 kts | 285° |
| 2026-05-05 15:12 | 29.15548 | -90.00675 | 32022 ft | 408 kts | 285° |
| 2026-05-05 15:12 | 29.16852 | -90.07002 | 32020 ft | 408 kts | 286° |
| 2026-05-05 15:13 | 29.18497 | -90.13203 | 32019 ft | 407 kts | 291° |
| 2026-05-05 15:13 | 29.20497 | -90.19265 | 32018 ft | 407 kts | 291° |
| 2026-05-05 15:14 | 29.22523 | -90.25307 | 32016 ft | 407 kts | 291° |
| 2026-05-05 15:14 | 29.24553 | -90.31369 | 32019 ft | 407 kts | 291° |
| 2026-05-05 15:15 | 29.26577 | -90.37428 | 32017 ft | 407 kts | 291° |
| 2026-05-05 15:15 | 29.28584 | -90.43448 | 32015 ft | 407 kts | 291° |
| 2026-05-05 15:16 | 29.30604 | -90.49514 | 32013 ft | 407 kts | 291° |
| 2026-05-05 15:16 | 29.32619 | -90.55580 | 32013 ft | 407 kts | 291° |
| 2026-05-05 15:17 | 29.34633 | -90.61652 | 32012 ft | 407 kts | 291° |
| 2026-05-05 15:17 | 29.36647 | -90.67733 | 32016 ft | 408 kts | 291° |
| 2026-05-05 15:18 | 29.38655 | -90.73810 | 32016 ft | 408 kts | 291° |
| 2026-05-05 15:18 | 29.40647 | -90.79848 | 32013 ft | 407 kts | 291° |
| 2026-05-05 15:19 | 29.42654 | -90.85941 | 32010 ft | 407 kts | 291° |
| 2026-05-05 15:19 | 29.44654 | -90.92025 | 32008 ft | 408 kts | 291° |
| 2026-05-05 15:20 | 29.46653 | -90.98116 | 32003 ft | 408 kts | 291° |
| 2026-05-05 15:20 | 29.48649 | -91.04208 | 31998 ft | 408 kts | 291° |
| 2026-05-05 15:21 | 29.50644 | -91.10309 | 32000 ft | 407 kts | 291° |
| 2026-05-05 15:21 | 29.52630 | -91.16395 | 32002 ft | 407 kts | 291° |
| 2026-05-05 15:22 | 29.54603 | -91.22448 | 32003 ft | 407 kts | 291° |
| 2026-05-05 15:22 | 29.56589 | -91.28555 | 32006 ft | 407 kts | 291° |
| 2026-05-05 15:23 | 29.58565 | -91.34642 | 32009 ft | 407 kts | 291° |
| 2026-05-05 15:23 | 29.60530 | -91.40703 | 32010 ft | 406 kts | 290° |
| 2026-05-05 15:24 | 29.62500 | -91.46793 | 32004 ft | 406 kts | 290° |
| 2026-05-05 15:24 | 29.64461 | -91.52866 | 32003 ft | 405 kts | 290° |
| 2026-05-05 15:25 | 29.66418 | -91.58938 | 31993 ft | 405 kts | 290° |
| 2026-05-05 15:25 | 29.68372 | -91.65010 | 31989 ft | 404 kts | 290° |
| 2026-05-05 15:26 | 29.70319 | -91.71071 | 31980 ft | 404 kts | 290° |
| 2026-05-05 15:26 | 29.72252 | -91.77101 | 31973 ft | 404 kts | 290° |
| 2026-05-05 15:27 | 29.74195 | -91.83173 | 31974 ft | 404 kts | 290° |
| 2026-05-05 15:27 | 29.76134 | -91.89241 | 31965 ft | 404 kts | 290° |
| 2026-05-05 15:28 | 29.78070 | -91.95314 | 31961 ft | 404 kts | 290° |
| 2026-05-05 15:28 | 29.80000 | -92.01375 | 31963 ft | 404 kts | 290° |
| 2026-05-05 15:29 | 29.81935 | -92.07468 | 31965 ft | 404 kts | 290° |
| 2026-05-05 15:29 | 29.83849 | -92.13504 | 31965 ft | 403 kts | 290° |
| 2026-05-05 15:30 | 29.85770 | -92.19570 | 31964 ft | 403 kts | 290° |
| 2026-05-05 15:30 | 29.87689 | -92.25645 | 31965 ft | 402 kts | 290° |
| 2026-05-05 15:31 | 29.89601 | -92.31707 | 31968 ft | 402 kts | 290° |
| 2026-05-05 15:31 | 29.91508 | -92.37766 | 31966 ft | 402 kts | 290° |
| 2026-05-05 15:32 | 29.93401 | -92.43789 | 31969 ft | 401 kts | 290° |
| 2026-05-05 15:32 | 29.95302 | -92.49848 | 31968 ft | 401 kts | 290° |
| 2026-05-05 15:33 | 29.97195 | -92.55894 | 31961 ft | 401 kts | 290° |
| 2026-05-05 15:33 | 29.99084 | -92.61939 | 31960 ft | 400 kts | 290° |
| 2026-05-05 15:34 | 30.00970 | -92.67986 | 31959 ft | 400 kts | 290° |
| 2026-05-05 15:34 | 30.02851 | -92.74025 | 31960 ft | 400 kts | 290° |
| 2026-05-05 15:35 | 30.04728 | -92.80065 | 31957 ft | 400 kts | 289° |
| 2026-05-05 15:35 | 30.06587 | -92.86058 | 31959 ft | 399 kts | 289° |
| 2026-05-05 15:36 | 30.08458 | -92.92100 | 31955 ft | 399 kts | 289° |
| 2026-05-05 15:36 | 30.10322 | -92.98132 | 31955 ft | 399 kts | 289° |
| 2026-05-05 15:37 | 30.12184 | -93.04169 | 31956 ft | 399 kts | 289° |
| 2026-05-05 15:37 | 30.13307 | -93.10412 | 31961 ft | 402 kts | 274° |
| 2026-05-05 15:38 | 30.13247 | -93.16884 | 31951 ft | 403 kts | 271° |
| 2026-05-05 15:38 | 30.12782 | -93.23358 | 31952 ft | 405 kts | 267° |
| 2026-05-05 15:39 | 30.12102 | -93.29831 | 31948 ft | 406 kts | 267° |
| 2026-05-05 15:39 | 30.11404 | -93.36309 | 31954 ft | 406 kts | 266° |
| 2026-05-05 15:40 | 30.10707 | -93.42779 | 31954 ft | 406 kts | 266° |
| 2026-05-05 15:40 | 30.10003 | -93.49248 | 31956 ft | 406 kts | 266° |
| 2026-05-05 15:41 | 30.09416 | -93.54625 | 31958 ft | 406 kts | 266° |
| 2026-05-05 15:41 | 30.08593 | -93.62141 | 31959 ft | 406 kts | 266° |
| 2026-05-05 15:42 | 30.07998 | -93.67553 | 31951 ft | 406 kts | 266° |
| 2026-05-05 15:42 | 30.07289 | -93.73975 | 31950 ft | 405 kts | 266° |
| 2026-05-05 15:43 | 30.06572 | -93.80434 | 31943 ft | 405 kts | 266° |
| 2026-05-05 15:43 | 30.05852 | -93.86893 | 31952 ft | 405 kts | 266° |
| 2026-05-05 15:44 | 30.05130 | -93.93345 | 31954 ft | 405 kts | 266° |
| 2026-05-05 15:44 | 30.04406 | -93.99786 | 31934 ft | 405 kts | 266° |
| 2026-05-05 15:45 | 30.03677 | -94.06233 | 31933 ft | 405 kts | 266° |
| 2026-05-05 15:45 | 30.02946 | -94.12675 | 31928 ft | 404 kts | 266° |
| 2026-05-05 15:46 | 30.02213 | -94.19106 | 31914 ft | 404 kts | 266° |
| 2026-05-05 15:46 | 30.01482 | -94.25497 | 31916 ft | 404 kts | 266° |
| 2026-05-05 15:47 | 30.00743 | -94.31920 | 31909 ft | 404 kts | 266° |
| 2026-05-05 15:47 | 29.99999 | -94.38368 | 31920 ft | 404 kts | 266° |
| 2026-05-05 15:48 | 29.99254 | -94.44784 | 31912 ft | 403 kts | 265° |
| 2026-05-05 15:48 | 29.98507 | -94.51206 | 31912 ft | 403 kts | 265° |
| 2026-05-05 15:49 | 29.97756 | -94.57623 | 31913 ft | 404 kts | 265° |
| 2026-05-05 15:49 | 29.97002 | -94.64035 | 31903 ft | 403 kts | 265° |
| 2026-05-05 15:50 | 29.96246 | -94.70447 | 31910 ft | 403 kts | 265° |
| 2026-05-05 15:50 | 29.95487 | -94.76857 | 31911 ft | 403 kts | 265° |
| 2026-05-05 15:51 | 29.94730 | -94.83219 | 31906 ft | 403 kts | 265° |
| 2026-05-05 15:51 | 29.93963 | -94.89633 | 31901 ft | 403 kts | 265° |
| 2026-05-05 15:52 | 29.93195 | -94.96032 | 31895 ft | 403 kts | 265° |
| 2026-05-05 15:52 | 29.92535 | -95.01509 | 31897 ft | 403 kts | 265° |
| 2026-05-05 15:53 | 29.91780 | -95.07761 | 31895 ft | 403 kts | 265° |
| 2026-05-05 15:53 | 29.91036 | -95.13889 | 31894 ft | 402 kts | 265° |
| 2026-05-05 15:54 | 29.90262 | -95.20235 | 31893 ft | 403 kts | 265° |
| 2026-05-05 15:54 | 29.89480 | -95.26625 | 31896 ft | 403 kts | 265° |
| 2026-05-05 15:55 | 29.88701 | -95.32966 | 31671 ft | 404 kts | 265° |
| 2026-05-05 15:55 | 29.88299 | -95.36223 | 31290 ft | 406 kts | 265° |
| 2026-05-05 15:55 | 29.87903 | -95.39430 | 30936 ft | 408 kts | 265° |
| 2026-05-05 15:55 | 29.87517 | -95.42545 | 30602 ft | 410 kts | 264° |
| 2026-05-05 15:56 | 29.87103 | -95.45889 | 30254 ft | 411 kts | 264° |
| 2026-05-05 15:56 | 29.86699 | -95.49137 | 29914 ft | 413 kts | 264° |
| 2026-05-05 15:56 | 29.86290 | -95.52426 | 29505 ft | 414 kts | 264° |
| 2026-05-05 15:56 | 29.85879 | -95.55720 | 29103 ft | 415 kts | 264° |
| 2026-05-05 15:57 | 29.85467 | -95.59008 | 28715 ft | 413 kts | 264° |
| 2026-05-05 15:57 | 29.85067 | -95.62185 | 28274 ft | 388 kts | 264° |
| 2026-05-05 15:57 | 29.84685 | -95.65248 | 27862 ft | 385 kts | 264° |
| 2026-05-05 15:57 | 29.84302 | -95.68292 | 27479 ft | 383 kts | 264° |
| 2026-05-05 15:58 | 29.83920 | -95.71322 | 27113 ft | 381 kts | 264° |
| 2026-05-05 15:58 | 29.83540 | -95.74335 | 26853 ft | 380 kts | 264° |
| 2026-05-05 15:58 | 29.83159 | -95.77341 | 26654 ft | 379 kts | 264° |
| 2026-05-05 15:58 | 29.82779 | -95.80340 | 26436 ft | 378 kts | 264° |
| 2026-05-05 15:59 | 29.82399 | -95.83330 | 26203 ft | 377 kts | 264° |
| 2026-05-05 15:59 | 29.82021 | -95.86305 | 25967 ft | 375 kts | 264° |
| 2026-05-05 15:59 | 29.81643 | -95.89274 | 25741 ft | 374 kts | 264° |
| 2026-05-05 15:59 | 29.81270 | -95.92188 | 25514 ft | 372 kts | 264° |
| 2026-05-05 16:00 | 29.80894 | -95.95135 | 25287 ft | 371 kts | 264° |
| 2026-05-05 16:00 | 29.80517 | -95.98074 | 25063 ft | 370 kts | 264° |
| 2026-05-05 16:00 | 29.80141 | -96.01002 | 24834 ft | 369 kts | 264° |
| 2026-05-05 16:00 | 29.79765 | -96.03926 | 24586 ft | 367 kts | 263° |
| 2026-05-05 16:01 | 29.79391 | -96.06828 | 24345 ft | 366 kts | 264° |
| 2026-05-05 16:01 | 29.79020 | -96.09702 | 24104 ft | 366 kts | 263° |
| 2026-05-05 16:01 | 29.78638 | -96.12675 | 23881 ft | 379 kts | 263° |
| 2026-05-05 16:01 | 29.78330 | -96.15690 | 23651 ft | 379 kts | 266° |
| 2026-05-05 16:02 | 29.78158 | -96.18719 | 23428 ft | 381 kts | 268° |
| 2026-05-05 16:02 | 29.78230 | -96.21735 | 23050 ft | 383 kts | 274° |
| 2026-05-05 16:02 | 29.78424 | -96.24796 | 22666 ft | 385 kts | 274° |
| 2026-05-05 16:02 | 29.78652 | -96.27885 | 22291 ft | 387 kts | 275° |
| 2026-05-05 16:03 | 29.78884 | -96.30970 | 21918 ft | 389 kts | 275° |
| 2026-05-05 16:03 | 29.79119 | -96.34103 | 21545 ft | 392 kts | 275° |
| 2026-05-05 16:03 | 29.79354 | -96.37245 | 21177 ft | 394 kts | 274° |
| 2026-05-05 16:03 | 29.79590 | -96.40400 | 20812 ft | 397 kts | 274° |
| 2026-05-05 16:04 | 29.79824 | -96.43570 | 20443 ft | 399 kts | 274° |
| 2026-05-05 16:04 | 29.80045 | -96.46559 | 20104 ft | 0 kts | 274° |